sensor_id;sensor_type;location;lat;lon;timestamp;P1;durP1;ratioP1;P2;durP2;ratioP2
5742;SDS011;2896;53.500;10.020;2023-05-14T00:00:03;11.67;;;7.20;;
5742;SDS011;2896;53.500;10.020;2023-05-14T00:02:32;7.50;;;6.80;;
5742;SDS011;2896;53.500;10.020;2023-05-14T00:04:59;8.00;;;7.30;;
5742;SDS011;2896;53.500;10.020;2023-05-14T00:07:26;7.33;;;6.77;;
5742;SDS011;2896;53.500;10.020;2023-05-14T00:09:54;7.00;;;6.40;;
5742;SDS011;2896;53.500;10.020;2023-05-14T00:12:21;7.30;;;6.70;;
5742;SDS011;2896;53.500;10.020;2023-05-14T00:14:48;7.70;;;6.90;;
5742;SDS011;2896;53.500;10.020;2023-05-14T00:17:14;7.03;;;6.43;;
5742;SDS011;2896;53.500;10.020;2023-05-14T00:19:42;7.53;;;6.13;;
5742;SDS011;2896;53.500;10.020;2023-05-14T00:22:09;7.10;;;6.30;;
5742;SDS011;2896;53.500;10.020;2023-05-14T00:24:36;7.37;;;6.77;;
5742;SDS011;2896;53.500;10.020;2023-05-14T00:27:03;7.40;;;6.80;;
5742;SDS011;2896;53.500;10.020;2023-05-14T00:29:30;7.60;;;6.90;;
5742;SDS011;2896;53.500;10.020;2023-05-14T00:31:57;7.47;;;6.87;;
5742;SDS011;2896;53.500;10.020;2023-05-14T00:34:23;7.43;;;6.70;;
5742;SDS011;2896;53.500;10.020;2023-05-14T00:36:51;6.90;;;6.30;;
5742;SDS011;2896;53.500;10.020;2023-05-14T00:39:18;11.40;;;7.30;;
5742;SDS011;2896;53.500;10.020;2023-05-14T00:41:44;7.60;;;6.90;;
5742;SDS011;2896;53.500;10.020;2023-05-14T00:44:11;9.50;;;7.30;;
5742;SDS011;2896;53.500;10.020;2023-05-14T00:46:38;8.20;;;7.50;;
5742;SDS011;2896;53.500;10.020;2023-05-14T00:49:04;10.30;;;7.50;;
5742;SDS011;2896;53.500;10.020;2023-05-14T00:51:31;8.20;;;7.40;;
5742;SDS011;2896;53.500;10.020;2023-05-14T00:54:00;8.40;;;7.53;;
5742;SDS011;2896;53.500;10.020;2023-05-14T00:56:26;7.33;;;6.67;;
5742;SDS011;2896;53.500;10.020;2023-05-14T00:58:53;7.80;;;7.10;;
5742;SDS011;2896;53.500;10.020;2023-05-14T01:01:20;10.07;;;8.87;;
5742;SDS011;2896;53.500;10.020;2023-05-14T01:03:47;8.13;;;7.50;;
5742;SDS011;2896;53.500;10.020;2023-05-14T01:06:14;8.17;;;7.33;;
5742;SDS011;2896;53.500;10.020;2023-05-14T01:08:49;8.00;;;7.40;;
5742;SDS011;2896;53.500;10.020;2023-05-14T01:11:27;7.83;;;7.23;;
5742;SDS011;2896;53.500;10.020;2023-05-14T01:13:57;7.57;;;6.90;;
5742;SDS011;2896;53.500;10.020;2023-05-14T01:16:28;7.90;;;7.10;;
5742;SDS011;2896;53.500;10.020;2023-05-14T01:18:58;7.33;;;6.73;;
5742;SDS011;2896;53.500;10.020;2023-05-14T01:21:35;7.60;;;6.97;;
5742;SDS011;2896;53.500;10.020;2023-05-14T01:24:03;7.60;;;6.90;;
5742;SDS011;2896;53.500;10.020;2023-05-14T01:26:30;8.47;;;7.20;;
5742;SDS011;2896;53.500;10.020;2023-05-14T01:28:58;7.87;;;7.10;;
5742;SDS011;2896;53.500;10.020;2023-05-14T01:31:28;7.47;;;6.80;;
5742;SDS011;2896;53.500;10.020;2023-05-14T01:33:58;11.57;;;8.67;;
5742;SDS011;2896;53.500;10.020;2023-05-14T01:36:27;8.00;;;7.27;;
5742;SDS011;2896;53.500;10.020;2023-05-14T01:38:56;8.13;;;6.97;;
5742;SDS011;2896;53.500;10.020;2023-05-14T01:41:23;8.27;;;7.13;;
5742;SDS011;2896;53.500;10.020;2023-05-14T01:43:51;7.20;;;6.60;;
5742;SDS011;2896;53.500;10.020;2023-05-14T01:46:18;8.63;;;7.73;;
5742;SDS011;2896;53.500;10.020;2023-05-14T01:48:44;9.30;;;7.80;;
5742;SDS011;2896;53.500;10.020;2023-05-14T01:51:11;8.33;;;7.47;;
5742;SDS011;2896;53.500;10.020;2023-05-14T01:53:38;8.57;;;7.87;;
5742;SDS011;2896;53.500;10.020;2023-05-14T01:56:07;9.40;;;8.50;;
5742;SDS011;2896;53.500;10.020;2023-05-14T01:58:33;8.43;;;7.57;;
5742;SDS011;2896;53.500;10.020;2023-05-14T02:01:00;8.70;;;7.87;;
5742;SDS011;2896;53.500;10.020;2023-05-14T02:03:26;7.87;;;7.17;;
5742;SDS011;2896;53.500;10.020;2023-05-14T02:05:53;7.37;;;6.70;;
5742;SDS011;2896;53.500;10.020;2023-05-14T02:08:19;8.37;;;7.47;;
5742;SDS011;2896;53.500;10.020;2023-05-14T02:10:46;8.17;;;7.47;;
5742;SDS011;2896;53.500;10.020;2023-05-14T02:13:14;7.93;;;7.33;;
5742;SDS011;2896;53.500;10.020;2023-05-14T02:15:41;7.70;;;6.90;;
5742;SDS011;2896;53.500;10.020;2023-05-14T02:18:08;8.87;;;7.63;;
5742;SDS011;2896;53.500;10.020;2023-05-14T02:20:34;8.90;;;7.90;;
5742;SDS011;2896;53.500;10.020;2023-05-14T02:23:01;8.10;;;7.40;;
5742;SDS011;2896;53.500;10.020;2023-05-14T02:25:28;8.87;;;7.87;;
5742;SDS011;2896;53.500;10.020;2023-05-14T02:27:54;8.23;;;7.53;;
5742;SDS011;2896;53.500;10.020;2023-05-14T02:30:22;8.37;;;7.77;;
5742;SDS011;2896;53.500;10.020;2023-05-14T02:32:49;9.27;;;8.27;;
5742;SDS011;2896;53.500;10.020;2023-05-14T02:35:15;8.97;;;8.17;;
5742;SDS011;2896;53.500;10.020;2023-05-14T02:37:42;8.30;;;7.50;;
5742;SDS011;2896;53.500;10.020;2023-05-14T02:40:09;9.43;;;8.63;;
5742;SDS011;2896;53.500;10.020;2023-05-14T02:42:36;9.33;;;8.27;;
5742;SDS011;2896;53.500;10.020;2023-05-14T02:45:03;8.40;;;7.70;;
5742;SDS011;2896;53.500;10.020;2023-05-14T02:47:31;8.97;;;8.07;;
5742;SDS011;2896;53.500;10.020;2023-05-14T02:49:58;8.80;;;8.00;;
5742;SDS011;2896;53.500;10.020;2023-05-14T02:52:24;8.10;;;7.40;;
5742;SDS011;2896;53.500;10.020;2023-05-14T02:54:51;8.80;;;8.00;;
5742;SDS011;2896;53.500;10.020;2023-05-14T02:57:18;8.67;;;7.87;;
5742;SDS011;2896;53.500;10.020;2023-05-14T02:59:45;8.43;;;7.60;;
5742;SDS011;2896;53.500;10.020;2023-05-14T03:02:11;8.93;;;8.23;;
5742;SDS011;2896;53.500;10.020;2023-05-14T03:04:39;10.00;;;8.77;;
5742;SDS011;2896;53.500;10.020;2023-05-14T03:07:06;8.93;;;8.13;;
5742;SDS011;2896;53.500;10.020;2023-05-14T03:09:32;10.20;;;9.10;;
5742;SDS011;2896;53.500;10.020;2023-05-14T03:11:59;9.57;;;8.50;;
5742;SDS011;2896;53.500;10.020;2023-05-14T03:14:26;8.43;;;7.63;;
5742;SDS011;2896;53.500;10.020;2023-05-14T03:16:52;8.83;;;7.93;;
5742;SDS011;2896;53.500;10.020;2023-05-14T03:19:19;8.10;;;7.50;;
5742;SDS011;2896;53.500;10.020;2023-05-14T03:21:47;8.10;;;7.40;;
5742;SDS011;2896;53.500;10.020;2023-05-14T03:24:14;10.20;;;7.77;;
5742;SDS011;2896;53.500;10.020;2023-05-14T03:26:40;9.90;;;9.00;;
5742;SDS011;2896;53.500;10.020;2023-05-14T03:29:07;9.87;;;8.97;;
5742;SDS011;2896;53.500;10.020;2023-05-14T03:31:34;8.93;;;8.23;;
5742;SDS011;2896;53.500;10.020;2023-05-14T03:34:01;10.10;;;8.50;;
5742;SDS011;2896;53.500;10.020;2023-05-14T03:36:28;9.93;;;9.03;;
5742;SDS011;2896;53.500;10.020;2023-05-14T03:38:57;10.50;;;9.40;;
5742;SDS011;2896;53.500;10.020;2023-05-14T03:41:23;9.40;;;8.60;;
5742;SDS011;2896;53.500;10.020;2023-05-14T03:43:50;10.47;;;9.43;;
5742;SDS011;2896;53.500;10.020;2023-05-14T03:46:16;15.73;;;8.93;;
5742;SDS011;2896;53.500;10.020;2023-05-14T03:48:43;10.40;;;9.13;;
5742;SDS011;2896;53.500;10.020;2023-05-14T03:51:10;10.13;;;9.17;;
5742;SDS011;2896;53.500;10.020;2023-05-14T03:53:36;11.10;;;10.00;;
5742;SDS011;2896;53.500;10.020;2023-05-14T03:56:04;10.00;;;9.00;;
5742;SDS011;2896;53.500;10.020;2023-05-14T03:58:31;9.90;;;9.03;;
5742;SDS011;2896;53.500;10.020;2023-05-14T04:00:58;11.20;;;10.20;;
5742;SDS011;2896;53.500;10.020;2023-05-14T04:03:25;11.00;;;9.90;;
5742;SDS011;2896;53.500;10.020;2023-05-14T04:05:51;9.63;;;8.73;;
5742;SDS011;2896;53.500;10.020;2023-05-14T04:08:18;9.43;;;8.57;;
5742;SDS011;2896;53.500;10.020;2023-05-14T04:10:45;10.47;;;9.47;;
5742;SDS011;2896;53.500;10.020;2023-05-14T04:13:12;9.57;;;8.70;;
5742;SDS011;2896;53.500;10.020;2023-05-14T04:15:39;10.30;;;9.30;;
5742;SDS011;2896;53.500;10.020;2023-05-14T04:18:06;10.80;;;9.67;;
5742;SDS011;2896;53.500;10.020;2023-05-14T04:20:33;9.93;;;8.93;;
5742;SDS011;2896;53.500;10.020;2023-05-14T04:22:59;12.50;;;8.93;;
5742;SDS011;2896;53.500;10.020;2023-05-14T04:25:26;12.30;;;10.20;;
5742;SDS011;2896;53.500;10.020;2023-05-14T04:27:53;10.47;;;9.37;;
5742;SDS011;2896;53.500;10.020;2023-05-14T04:30:21;9.83;;;8.83;;
5742;SDS011;2896;53.500;10.020;2023-05-14T04:32:47;9.80;;;8.90;;
5742;SDS011;2896;53.500;10.020;2023-05-14T04:35:14;10.90;;;9.80;;
5742;SDS011;2896;53.500;10.020;2023-05-14T04:37:41;11.13;;;10.13;;
5742;SDS011;2896;53.500;10.020;2023-05-14T04:40:08;10.77;;;9.83;;
5742;SDS011;2896;53.500;10.020;2023-05-14T04:42:36;10.13;;;9.13;;
5742;SDS011;2896;53.500;10.020;2023-05-14T04:45:03;11.20;;;10.20;;
5742;SDS011;2896;53.500;10.020;2023-05-14T04:47:32;10.83;;;9.83;;
5742;SDS011;2896;53.500;10.020;2023-05-14T04:49:59;12.70;;;11.40;;
5742;SDS011;2896;53.500;10.020;2023-05-14T04:52:25;16.43;;;11.77;;
5742;SDS011;2896;53.500;10.020;2023-05-14T04:54:52;11.30;;;10.20;;
5742;SDS011;2896;53.500;10.020;2023-05-14T04:57:19;10.60;;;9.60;;
5742;SDS011;2896;53.500;10.020;2023-05-14T04:59:46;12.67;;;11.10;;
5742;SDS011;2896;53.500;10.020;2023-05-14T05:02:12;17.47;;;11.23;;
5742;SDS011;2896;53.500;10.020;2023-05-14T05:04:40;10.87;;;9.87;;
5742;SDS011;2896;53.500;10.020;2023-05-14T05:07:07;9.60;;;8.70;;
5742;SDS011;2896;53.500;10.020;2023-05-14T05:09:33;11.43;;;10.27;;
5742;SDS011;2896;53.500;10.020;2023-05-14T05:12:00;15.37;;;11.70;;
5742;SDS011;2896;53.500;10.020;2023-05-14T05:14:26;12.90;;;11.57;;
5742;SDS011;2896;53.500;10.020;2023-05-14T05:16:53;9.93;;;9.03;;
5742;SDS011;2896;53.500;10.020;2023-05-14T05:19:20;10.53;;;9.53;;
5742;SDS011;2896;53.500;10.020;2023-05-14T05:21:48;10.63;;;9.63;;
5742;SDS011;2896;53.500;10.020;2023-05-14T05:24:15;12.13;;;10.23;;
5742;SDS011;2896;53.500;10.020;2023-05-14T05:26:41;11.03;;;10.10;;
5742;SDS011;2896;53.500;10.020;2023-05-14T05:29:08;12.23;;;9.30;;
5742;SDS011;2896;53.500;10.020;2023-05-14T05:31:34;15.90;;;10.27;;
5742;SDS011;2896;53.500;10.020;2023-05-14T05:34:01;10.50;;;9.50;;
5742;SDS011;2896;53.500;10.020;2023-05-14T05:36:28;11.90;;;10.00;;
5742;SDS011;2896;53.500;10.020;2023-05-14T05:38:57;9.93;;;9.00;;
5742;SDS011;2896;53.500;10.020;2023-05-14T05:41:23;9.40;;;8.60;;
5742;SDS011;2896;53.500;10.020;2023-05-14T05:43:51;11.07;;;9.97;;
5742;SDS011;2896;53.500;10.020;2023-05-14T05:46:17;10.73;;;9.63;;
5742;SDS011;2896;53.500;10.020;2023-05-14T05:48:44;13.17;;;9.80;;
5742;SDS011;2896;53.500;10.020;2023-05-14T05:51:11;8.93;;;8.13;;
5742;SDS011;2896;53.500;10.020;2023-05-14T05:53:39;9.80;;;9.00;;
5742;SDS011;2896;53.500;10.020;2023-05-14T05:56:07;11.07;;;9.90;;
5742;SDS011;2896;53.500;10.020;2023-05-14T05:58:33;10.20;;;9.20;;
5742;SDS011;2896;53.500;10.020;2023-05-14T06:01:00;9.23;;;8.47;;
5742;SDS011;2896;53.500;10.020;2023-05-14T06:03:26;10.37;;;9.40;;
5742;SDS011;2896;53.500;10.020;2023-05-14T06:05:53;13.47;;;9.80;;
5742;SDS011;2896;53.500;10.020;2023-05-14T06:08:20;14.47;;;8.70;;
5742;SDS011;2896;53.500;10.020;2023-05-14T06:10:46;13.13;;;8.80;;
5742;SDS011;2896;53.500;10.020;2023-05-14T06:13:14;10.10;;;9.20;;
5742;SDS011;2896;53.500;10.020;2023-05-14T06:15:41;10.37;;;9.47;;
5742;SDS011;2896;53.500;10.020;2023-05-14T06:18:07;12.07;;;9.07;;
5742;SDS011;2896;53.500;10.020;2023-05-14T06:20:34;9.90;;;8.90;;
5742;SDS011;2896;53.500;10.020;2023-05-14T06:23:01;9.30;;;8.50;;
5742;SDS011;2896;53.500;10.020;2023-05-14T06:25:28;10.13;;;7.70;;
5742;SDS011;2896;53.500;10.020;2023-05-14T06:27:54;9.90;;;8.97;;
5742;SDS011;2896;53.500;10.020;2023-05-14T06:30:22;8.90;;;8.13;;
5742;SDS011;2896;53.500;10.020;2023-05-14T06:32:49;7.23;;;6.73;;
5742;SDS011;2896;53.500;10.020;2023-05-14T06:35:16;8.70;;;7.90;;
5742;SDS011;2896;53.500;10.020;2023-05-14T06:37:42;12.17;;;8.47;;
5742;SDS011;2896;53.500;10.020;2023-05-14T06:40:09;7.77;;;7.17;;
5742;SDS011;2896;53.500;10.020;2023-05-14T06:42:37;8.73;;;7.90;;
5742;SDS011;2896;53.500;10.020;2023-05-14T06:45:03;10.03;;;7.87;;
5742;SDS011;2896;53.500;10.020;2023-05-14T06:47:32;8.17;;;7.47;;
5742;SDS011;2896;53.500;10.020;2023-05-14T06:49:59;11.07;;;7.17;;
5742;SDS011;2896;53.500;10.020;2023-05-14T06:52:25;8.20;;;7.40;;
5742;SDS011;2896;53.500;10.020;2023-05-14T06:54:52;8.93;;;8.13;;
5742;SDS011;2896;53.500;10.020;2023-05-14T06:57:19;8.20;;;7.50;;
5742;SDS011;2896;53.500;10.020;2023-05-14T06:59:46;8.63;;;7.77;;
5742;SDS011;2896;53.500;10.020;2023-05-14T07:02:12;7.53;;;6.80;;
5742;SDS011;2896;53.500;10.020;2023-05-14T07:04:40;10.00;;;6.93;;
5742;SDS011;2896;53.500;10.020;2023-05-14T07:07:07;7.77;;;6.97;;
5742;SDS011;2896;53.500;10.020;2023-05-14T07:09:34;14.70;;;7.40;;
5742;SDS011;2896;53.500;10.020;2023-05-14T07:12:01;6.70;;;6.10;;
5742;SDS011;2896;53.500;10.020;2023-05-14T07:14:27;14.10;;;6.40;;
5742;SDS011;2896;53.500;10.020;2023-05-14T07:16:54;10.93;;;7.20;;
5742;SDS011;2896;53.500;10.020;2023-05-14T07:19:22;9.57;;;6.23;;
5742;SDS011;2896;53.500;10.020;2023-05-14T07:21:53;6.80;;;6.10;;
5742;SDS011;2896;53.500;10.020;2023-05-14T07:24:20;7.67;;;6.97;;
5742;SDS011;2896;53.500;10.020;2023-05-14T07:26:47;6.53;;;5.83;;
5742;SDS011;2896;53.500;10.020;2023-05-14T07:29:14;8.73;;;6.20;;
5742;SDS011;2896;53.500;10.020;2023-05-14T07:31:40;6.43;;;6.00;;
5742;SDS011;2896;53.500;10.020;2023-05-14T07:34:07;7.90;;;6.50;;
5742;SDS011;2896;53.500;10.020;2023-05-14T07:36:35;6.40;;;5.80;;
5742;SDS011;2896;53.500;10.020;2023-05-14T07:39:03;8.20;;;6.20;;
5742;SDS011;2896;53.500;10.020;2023-05-14T07:41:30;6.37;;;5.77;;
5742;SDS011;2896;53.500;10.020;2023-05-14T07:43:56;6.77;;;6.07;;
5742;SDS011;2896;53.500;10.020;2023-05-14T07:46:23;5.70;;;5.20;;
5742;SDS011;2896;53.500;10.020;2023-05-14T07:48:50;6.17;;;5.60;;
5742;SDS011;2896;53.500;10.020;2023-05-14T07:51:16;7.97;;;5.80;;
5742;SDS011;2896;53.500;10.020;2023-05-14T07:53:43;5.37;;;4.87;;
5742;SDS011;2896;53.500;10.020;2023-05-14T07:56:11;7.20;;;5.13;;
5742;SDS011;2896;53.500;10.020;2023-05-14T07:58:37;5.40;;;4.90;;
5742;SDS011;2896;53.500;10.020;2023-05-14T08:01:05;5.50;;;5.10;;
5742;SDS011;2896;53.500;10.020;2023-05-14T08:03:33;5.97;;;5.37;;
5742;SDS011;2896;53.500;10.020;2023-05-14T08:05:59;7.33;;;5.30;;
5742;SDS011;2896;53.500;10.020;2023-05-14T08:08:26;8.83;;;4.70;;
5742;SDS011;2896;53.500;10.020;2023-05-14T08:10:52;7.07;;;5.43;;
5742;SDS011;2896;53.500;10.020;2023-05-14T08:13:20;12.10;;;4.97;;
5742;SDS011;2896;53.500;10.020;2023-05-14T08:15:47;7.50;;;5.83;;
5742;SDS011;2896;53.500;10.020;2023-05-14T08:18:14;5.60;;;5.20;;
5742;SDS011;2896;53.500;10.020;2023-05-14T08:20:41;5.20;;;4.70;;
5742;SDS011;2896;53.500;10.020;2023-05-14T08:23:07;7.33;;;5.27;;
5742;SDS011;2896;53.500;10.020;2023-05-14T08:25:34;7.20;;;5.23;;
5742;SDS011;2896;53.500;10.020;2023-05-14T08:28:02;15.97;;;5.90;;
5742;SDS011;2896;53.500;10.020;2023-05-14T08:30:30;6.33;;;5.30;;
5742;SDS011;2896;53.500;10.020;2023-05-14T08:32:57;5.60;;;5.10;;
5742;SDS011;2896;53.500;10.020;2023-05-14T08:35:24;10.77;;;4.80;;
5742;SDS011;2896;53.500;10.020;2023-05-14T08:37:50;5.50;;;5.00;;
5742;SDS011;2896;53.500;10.020;2023-05-14T08:40:17;5.93;;;5.33;;
5742;SDS011;2896;53.500;10.020;2023-05-14T08:42:44;4.80;;;4.40;;
5742;SDS011;2896;53.500;10.020;2023-05-14T08:45:12;8.87;;;4.67;;
5742;SDS011;2896;53.500;10.020;2023-05-14T08:47:44;5.43;;;4.90;;
5742;SDS011;2896;53.500;10.020;2023-05-14T08:50:13;5.03;;;4.37;;
5742;SDS011;2896;53.500;10.020;2023-05-14T08:52:40;8.43;;;5.20;;
5742;SDS011;2896;53.500;10.020;2023-05-14T08:55:07;5.40;;;4.10;;
5742;SDS011;2896;53.500;10.020;2023-05-14T08:57:36;5.13;;;4.20;;
5742;SDS011;2896;53.500;10.020;2023-05-14T09:00:04;10.90;;;4.37;;
5742;SDS011;2896;53.500;10.020;2023-05-14T09:02:32;6.47;;;3.87;;
5742;SDS011;2896;53.500;10.020;2023-05-14T09:05:01;4.50;;;4.20;;
5742;SDS011;2896;53.500;10.020;2023-05-14T09:07:28;5.70;;;4.37;;
5742;SDS011;2896;53.500;10.020;2023-05-14T09:09:55;4.50;;;4.10;;
5742;SDS011;2896;53.500;10.020;2023-05-14T09:12:21;4.13;;;3.93;;
5742;SDS011;2896;53.500;10.020;2023-05-14T09:14:49;5.80;;;4.00;;
5742;SDS011;2896;53.500;10.020;2023-05-14T09:17:16;4.60;;;4.30;;
5742;SDS011;2896;53.500;10.020;2023-05-14T09:19:44;15.90;;;4.50;;
5742;SDS011;2896;53.500;10.020;2023-05-14T09:22:15;4.40;;;4.00;;
5742;SDS011;2896;53.500;10.020;2023-05-14T09:24:43;4.00;;;3.70;;
5742;SDS011;2896;53.500;10.020;2023-05-14T09:27:14;4.90;;;4.20;;
5742;SDS011;2896;53.500;10.020;2023-05-14T09:29:43;4.57;;;3.73;;
5742;SDS011;2896;53.500;10.020;2023-05-14T09:32:10;6.33;;;3.43;;
5742;SDS011;2896;53.500;10.020;2023-05-14T09:34:37;5.10;;;3.73;;
5742;SDS011;2896;53.500;10.020;2023-05-14T09:37:05;3.90;;;3.40;;
5742;SDS011;2896;53.500;10.020;2023-05-14T09:39:34;4.10;;;3.70;;
5742;SDS011;2896;53.500;10.020;2023-05-14T09:42:02;7.60;;;3.97;;
5742;SDS011;2896;53.500;10.020;2023-05-14T09:44:29;4.47;;;4.17;;
5742;SDS011;2896;53.500;10.020;2023-05-14T09:46:56;6.70;;;3.80;;
5742;SDS011;2896;53.500;10.020;2023-05-14T09:49:23;3.67;;;3.37;;
5742;SDS011;2896;53.500;10.020;2023-05-14T09:51:50;11.70;;;3.73;;
5742;SDS011;2896;53.500;10.020;2023-05-14T09:54:16;4.30;;;3.70;;
5742;SDS011;2896;53.500;10.020;2023-05-14T09:56:44;12.37;;;4.10;;
5742;SDS011;2896;53.500;10.020;2023-05-14T09:59:11;4.30;;;3.90;;
5742;SDS011;2896;53.500;10.020;2023-05-14T10:01:38;4.23;;;3.83;;
5742;SDS011;2896;53.500;10.020;2023-05-14T10:04:07;4.37;;;3.97;;
5742;SDS011;2896;53.500;10.020;2023-05-14T10:06:36;8.60;;;3.37;;
5742;SDS011;2896;53.500;10.020;2023-05-14T10:09:04;5.67;;;4.30;;
5742;SDS011;2896;53.500;10.020;2023-05-14T10:11:37;3.77;;;3.47;;
5742;SDS011;2896;53.500;10.020;2023-05-14T10:14:07;4.47;;;3.00;;
5742;SDS011;2896;53.500;10.020;2023-05-14T10:16:42;6.03;;;3.57;;
5742;SDS011;2896;53.500;10.020;2023-05-14T10:19:11;4.20;;;3.20;;
5742;SDS011;2896;53.500;10.020;2023-05-14T10:21:40;5.00;;;3.60;;
5742;SDS011;2896;53.500;10.020;2023-05-14T10:24:10;3.70;;;3.40;;
5742;SDS011;2896;53.500;10.020;2023-05-14T10:26:38;3.77;;;3.47;;
5742;SDS011;2896;53.500;10.020;2023-05-14T10:29:06;3.63;;;3.33;;
5742;SDS011;2896;53.500;10.020;2023-05-14T10:31:44;3.73;;;2.93;;
5742;SDS011;2896;53.500;10.020;2023-05-14T10:37:05;4.33;;;3.53;;
5742;SDS011;2896;53.500;10.020;2023-05-14T10:39:39;4.17;;;3.67;;
5742;SDS011;2896;53.500;10.020;2023-05-14T10:42:07;3.17;;;2.97;;
5742;SDS011;2896;53.500;10.020;2023-05-14T10:44:37;4.10;;;3.70;;
5742;SDS011;2896;53.500;10.020;2023-05-14T10:47:08;4.80;;;3.10;;
5742;SDS011;2896;53.500;10.020;2023-05-14T10:49:35;3.83;;;3.43;;
5742;SDS011;2896;53.500;10.020;2023-05-14T10:52:01;3.90;;;3.57;;
5742;SDS011;2896;53.500;10.020;2023-05-14T10:54:28;7.37;;;3.70;;
5742;SDS011;2896;53.500;10.020;2023-05-14T10:56:57;3.70;;;3.40;;
5742;SDS011;2896;53.500;10.020;2023-05-14T10:59:25;3.90;;;3.40;;
5742;SDS011;2896;53.500;10.020;2023-05-14T11:01:55;20.57;;;4.43;;
5742;SDS011;2896;53.500;10.020;2023-05-14T11:04:22;6.63;;;4.00;;
5742;SDS011;2896;53.500;10.020;2023-05-14T11:06:49;7.50;;;3.93;;
5742;SDS011;2896;53.500;10.020;2023-05-14T11:09:18;5.40;;;3.47;;
5742;SDS011;2896;53.500;10.020;2023-05-14T11:11:46;5.13;;;4.00;;
5742;SDS011;2896;53.500;10.020;2023-05-14T11:14:13;5.03;;;3.53;;
5742;SDS011;2896;53.500;10.020;2023-05-14T11:16:39;13.90;;;4.27;;
5742;SDS011;2896;53.500;10.020;2023-05-14T11:19:08;4.53;;;4.03;;
5742;SDS011;2896;53.500;10.020;2023-05-14T11:21:36;12.17;;;4.30;;
5742;SDS011;2896;53.500;10.020;2023-05-14T11:24:02;5.67;;;3.27;;
5742;SDS011;2896;53.500;10.020;2023-05-14T11:26:31;5.37;;;4.53;;
5742;SDS011;2896;53.500;10.020;2023-05-14T11:28:58;5.03;;;4.00;;
5742;SDS011;2896;53.500;10.020;2023-05-14T11:31:26;12.93;;;4.30;;
5742;SDS011;2896;53.500;10.020;2023-05-14T11:33:53;4.73;;;3.70;;
5742;SDS011;2896;53.500;10.020;2023-05-14T11:36:21;7.73;;;3.90;;
5742;SDS011;2896;53.500;10.020;2023-05-14T11:38:48;7.10;;;3.90;;
5742;SDS011;2896;53.500;10.020;2023-05-14T11:41:16;4.80;;;3.83;;
5742;SDS011;2896;53.500;10.020;2023-05-14T11:43:44;5.20;;;3.90;;
5742;SDS011;2896;53.500;10.020;2023-05-14T11:46:15;4.77;;;3.50;;
5742;SDS011;2896;53.500;10.020;2023-05-14T11:48:43;4.20;;;3.90;;
5742;SDS011;2896;53.500;10.020;2023-05-14T11:51:09;4.37;;;4.00;;
5742;SDS011;2896;53.500;10.020;2023-05-14T11:53:37;4.33;;;3.70;;
5742;SDS011;2896;53.500;10.020;2023-05-14T11:56:04;6.40;;;4.20;;
5742;SDS011;2896;53.500;10.020;2023-05-14T11:58:31;4.43;;;3.57;;
5742;SDS011;2896;53.500;10.020;2023-05-14T12:00:58;5.70;;;3.73;;
5742;SDS011;2896;53.500;10.020;2023-05-14T12:03:25;4.43;;;3.73;;
5742;SDS011;2896;53.500;10.020;2023-05-14T12:05:54;8.20;;;5.33;;
5742;SDS011;2896;53.500;10.020;2023-05-14T12:08:21;4.40;;;3.97;;
5742;SDS011;2896;53.500;10.020;2023-05-14T12:10:53;8.17;;;5.40;;
5742;SDS011;2896;53.500;10.020;2023-05-14T12:13:19;4.20;;;3.60;;
5742;SDS011;2896;53.500;10.020;2023-05-14T12:15:47;3.67;;;3.40;;
5742;SDS011;2896;53.500;10.020;2023-05-14T12:18:19;8.33;;;3.63;;
5742;SDS011;2896;53.500;10.020;2023-05-14T12:20:46;10.20;;;3.60;;
5742;SDS011;2896;53.500;10.020;2023-05-14T12:23:13;6.30;;;3.50;;
5742;SDS011;2896;53.500;10.020;2023-05-14T12:25:48;4.23;;;3.73;;
5742;SDS011;2896;53.500;10.020;2023-05-14T12:28:17;5.83;;;3.63;;
5742;SDS011;2896;53.500;10.020;2023-05-14T12:30:44;6.43;;;3.90;;
5742;SDS011;2896;53.500;10.020;2023-05-14T12:33:11;7.80;;;3.53;;
5742;SDS011;2896;53.500;10.020;2023-05-14T12:35:38;3.93;;;3.57;;
5742;SDS011;2896;53.500;10.020;2023-05-14T12:38:05;3.27;;;3.03;;
5742;SDS011;2896;53.500;10.020;2023-05-14T12:40:31;9.30;;;3.43;;
5742;SDS011;2896;53.500;10.020;2023-05-14T12:42:58;5.03;;;3.23;;
5742;SDS011;2896;53.500;10.020;2023-05-14T12:45:26;4.20;;;3.73;;
5742;SDS011;2896;53.500;10.020;2023-05-14T12:47:52;5.83;;;3.97;;
5742;SDS011;2896;53.500;10.020;2023-05-14T12:50:19;4.60;;;4.20;;
5742;SDS011;2896;53.500;10.020;2023-05-14T12:52:46;3.90;;;3.70;;
5742;SDS011;2896;53.500;10.020;2023-05-14T12:55:12;3.90;;;3.70;;
5742;SDS011;2896;53.500;10.020;2023-05-14T12:57:39;5.53;;;3.53;;
5742;SDS011;2896;53.500;10.020;2023-05-14T13:00:06;7.97;;;4.00;;
5742;SDS011;2896;53.500;10.020;2023-05-14T13:02:37;4.00;;;3.80;;
5742;SDS011;2896;53.500;10.020;2023-05-14T13:05:03;9.33;;;3.90;;
5742;SDS011;2896;53.500;10.020;2023-05-14T13:07:30;6.97;;;3.97;;
5742;SDS011;2896;53.500;10.020;2023-05-14T13:09:57;6.40;;;3.97;;
5742;SDS011;2896;53.500;10.020;2023-05-14T13:12:24;3.93;;;3.70;;
5742;SDS011;2896;53.500;10.020;2023-05-14T13:14:50;12.93;;;3.70;;
5742;SDS011;2896;53.500;10.020;2023-05-14T13:17:17;8.03;;;3.73;;
5742;SDS011;2896;53.500;10.020;2023-05-14T13:19:45;3.80;;;3.60;;
5742;SDS011;2896;53.500;10.020;2023-05-14T13:22:12;4.10;;;3.70;;
5742;SDS011;2896;53.500;10.020;2023-05-14T13:24:41;4.83;;;3.67;;
5742;SDS011;2896;53.500;10.020;2023-05-14T13:27:07;5.50;;;3.87;;
5742;SDS011;2896;53.500;10.020;2023-05-14T13:29:34;4.53;;;3.57;;
5742;SDS011;2896;53.500;10.020;2023-05-14T13:32:01;7.53;;;3.60;;
5742;SDS011;2896;53.500;10.020;2023-05-14T13:34:27;4.17;;;3.87;;
5742;SDS011;2896;53.500;10.020;2023-05-14T13:36:56;4.60;;;4.10;;
5742;SDS011;2896;53.500;10.020;2023-05-14T13:39:22;3.87;;;3.60;;
5742;SDS011;2896;53.500;10.020;2023-05-14T13:41:51;24.03;;;4.23;;
5742;SDS011;2896;53.500;10.020;2023-05-14T13:44:17;3.20;;;2.93;;
5742;SDS011;2896;53.500;10.020;2023-05-14T13:46:44;5.00;;;4.37;;
5742;SDS011;2896;53.500;10.020;2023-05-14T13:49:11;7.27;;;3.90;;
5742;SDS011;2896;53.500;10.020;2023-05-14T13:51:37;4.50;;;4.00;;
5742;SDS011;2896;53.500;10.020;2023-05-14T13:54:05;4.27;;;3.87;;
5742;SDS011;2896;53.500;10.020;2023-05-14T13:56:32;5.40;;;4.10;;
5742;SDS011;2896;53.500;10.020;2023-05-14T13:58:59;4.87;;;3.90;;
5742;SDS011;2896;53.500;10.020;2023-05-14T14:01:26;5.53;;;4.20;;
5742;SDS011;2896;53.500;10.020;2023-05-14T14:03:54;7.97;;;3.63;;
5742;SDS011;2896;53.500;10.020;2023-05-14T14:06:21;7.43;;;4.70;;
5742;SDS011;2896;53.500;10.020;2023-05-14T14:08:47;5.20;;;4.30;;
5742;SDS011;2896;53.500;10.020;2023-05-14T14:11:15;4.83;;;4.33;;
5742;SDS011;2896;53.500;10.020;2023-05-14T14:13:42;5.83;;;3.90;;
5742;SDS011;2896;53.500;10.020;2023-05-14T14:16:09;10.00;;;3.90;;
5742;SDS011;2896;53.500;10.020;2023-05-14T14:18:35;7.47;;;3.73;;
5742;SDS011;2896;53.500;10.020;2023-05-14T14:21:02;5.07;;;2.53;;
5742;SDS011;2896;53.500;10.020;2023-05-14T14:23:30;4.70;;;4.00;;
5742;SDS011;2896;53.500;10.020;2023-05-14T14:25:56;4.90;;;3.63;;
5742;SDS011;2896;53.500;10.020;2023-05-14T14:28:24;9.40;;;3.57;;
5742;SDS011;2896;53.500;10.020;2023-05-14T14:30:51;3.97;;;3.77;;
5742;SDS011;2896;53.500;10.020;2023-05-14T14:33:18;6.00;;;3.30;;
5742;SDS011;2896;53.500;10.020;2023-05-14T14:35:44;3.50;;;3.30;;
5742;SDS011;2896;53.500;10.020;2023-05-14T14:38:11;6.30;;;3.80;;
5742;SDS011;2896;53.500;10.020;2023-05-14T14:40:38;3.97;;;3.67;;
5742;SDS011;2896;53.500;10.020;2023-05-14T14:43:05;7.37;;;3.23;;
5742;SDS011;2896;53.500;10.020;2023-05-14T14:45:33;4.63;;;3.47;;
5742;SDS011;2896;53.500;10.020;2023-05-14T14:50:48;4.43;;;3.70;;
5742;SDS011;2896;53.500;10.020;2023-05-14T14:53:15;4.23;;;3.90;;
5742;SDS011;2896;53.500;10.020;2023-05-14T14:55:42;5.27;;;4.23;;
5742;SDS011;2896;53.500;10.020;2023-05-14T14:58:09;20.33;;;3.87;;
5742;SDS011;2896;53.500;10.020;2023-05-14T15:00:37;4.97;;;4.50;;
5742;SDS011;2896;53.500;10.020;2023-05-14T15:03:05;8.67;;;3.77;;